Time;durP1;ratioP1;P1;durP2;ratioP2;P2;SDS_P1;SDS_P2;PMS_P1;PMS_P2;Temp;Humidity;BMP_temperature;BMP_pressure;BME280_temperature;BME280_humidity;BME280_pressure;Samples;Min_cycle;Max_cycle;Signal;HPM_P1;HPM_P2
2022/04/11 00:00:06;;;;;;;;;;;9.60;39.40;;;;;;6102300;23;20545;-78
2022/04/11 00:02:33;;;;;;;;;;;9.60;39.50;;;;;;6099760;23;19918;-78
2022/04/11 00:04:59;;;;;;;;;;;9.50;39.60;;;;;;6099561;23;19917;-82
2022/04/11 00:07:26;;;;;;;;;;;9.50;39.60;;;;;;6096138;23;19917;-78
2022/04/11 00:09:53;;;;;;;;;;;9.50;39.50;;;;;;6095169;23;20303;-79
2022/04/11 00:12:20;;;;;;;;;;;9.50;39.20;;;;;;6095490;23;20223;-80
2022/04/11 00:14:47;;;;;;;;;;;9.40;39.90;;;;;;6097057;23;19932;-82
2022/04/11 00:17:14;;;;;;;;;;;9.40;40.20;;;;;;6099161;23;19928;-77
2022/04/11 00:19:40;;;;;;;;;;;9.40;40.50;;;;;;6095692;23;20326;-82
2022/04/11 00:22:07;;;;;;;;;;;9.20;41.80;;;;;;6094500;23;19924;-79
2022/04/11 00:24:34;;;;;;;;;;;9.20;42.90;;;;;;6094753;23;20353;-81
2022/04/11 00:27:00;;;;;;;;;;;9.10;44.00;;;;;;6095814;23;19924;-80
2022/04/11 00:29:27;;;;;;;;;;;8.80;44.60;;;;;;6094563;23;20342;-82
2022/04/11 00:31:54;;;;;;;;;;;8.70;44.70;;;;;;6096873;23;19980;-78
2022/04/11 00:34:21;;;;;;;;;;;8.70;45.20;;;;;;6098762;23;20406;-77
2022/04/11 00:36:48;;;;;;;;;;;8.60;45.00;;;;;;6094405;23;19960;-82
2022/04/11 00:39:14;;;;;;;;;;;8.50;45.80;;;;;;6094513;23;19969;-78
2022/04/11 00:41:41;;;;;;;;;;;8.20;47.00;;;;;;6094355;23;19921;-78
2022/04/11 00:44:08;;;;;;;;;;;8.20;47.70;;;;;;6097280;23;19969;-81
2022/04/11 00:46:35;;;;;;;;;;;8.00;46.80;;;;;;6096877;23;19921;-78
2022/04/11 00:49:01;;;;;;;;;;;8.00;46.90;;;;;;6096463;23;19928;-81
2022/04/11 00:51:28;;;;;;;;;;;8.00;47.00;;;;;;6096953;23;19917;-81
2022/04/11 00:53:58;;;;;;;;;;;8.00;47.30;;;;;;6095062;23;20413;-79
2022/04/11 00:56:28;;;;;;;;;;;8.00;47.10;;;;;;6094990;23;20331;-78
2022/04/11 00:58:55;;;;;;;;;;;8.00;47.30;;;;;;6095836;23;20334;-81
2022/04/11 01:01:22;;;;;;;;;;;7.90;47.80;;;;;;6095290;23;19917;-78
2022/04/11 01:03:49;;;;;;;;;;;7.90;48.20;;;;;;6093779;23;19921;-80
2022/04/11 01:06:16;;;;;;;;;;;7.80;47.80;;;;;;6096580;23;20405;-79
2022/04/11 01:08:43;;;;;;;;;;;7.80;49.30;;;;;;6124989;23;19917;-80
2022/04/11 01:11:10;;;;;;;;;;;7.70;48.90;;;;;;6102345;23;20254;-78
2022/04/11 01:13:37;;;;;;;;;;;7.70;49.20;;;;;;6099875;23;19925;-78
2022/04/11 01:16:04;;;;;;;;;;;7.70;49.60;;;;;;6100086;23;19923;-77
2022/04/11 01:18:32;;;;;;;;;;;7.40;51.00;;;;;;6124687;23;19920;-77
2022/04/11 01:20:59;;;;;;;;;;;7.40;51.90;;;;;;6099471;23;19940;-78
2022/04/11 01:23:26;;;;;;;;;;;7.30;52.90;;;;;;6099901;23;19975;-78
2022/04/11 01:25:53;;;;;;;;;;;7.20;52.10;;;;;;6100066;23;19917;-78
2022/04/11 01:28:21;;;;;;;;;;;7.20;53.10;;;;;;6099128;23;19920;-81
2022/04/11 01:30:52;;;;;;;;;;;7.10;53.00;;;;;;6125244;23;19916;-79
2022/04/11 01:33:26;;;;;;;;;;;6.80;53.90;;;;;;6125819;23;20345;-78
2022/04/11 01:35:53;;;;;;;;;;;6.70;55.00;;;;;;6099745;23;19916;-78
2022/04/11 01:38:19;;;;;;;;;;;6.70;55.60;;;;;;6100650;23;19921;-80
2022/04/11 01:40:50;;;;;;;;;;;6.70;53.90;;;;;;6125271;23;19917;-77
2022/04/11 01:43:17;;;;;;;;;;;6.70;54.20;;;;;;6097521;23;19940;-78
2022/04/11 01:45:43;;;;;;;;;;;6.60;56.50;;;;;;6100685;23;19916;-80
2022/04/11 01:48:10;;;;;;;;;;;6.60;55.00;;;;;;6098429;23;19925;-78
2022/04/11 01:50:37;;;;;;;;;;;6.60;55.50;;;;;;6099343;23;20338;-82
2022/04/11 01:53:05;;;;;;;;;;;6.60;55.90;;;;;;6099238;23;19917;-78
2022/04/11 01:55:35;;;;;;;;;;;6.50;57.00;;;;;;6099730;23;19968;-80
2022/04/11 01:58:03;;;;;;;;;;;6.50;55.80;;;;;;6125042;23;19964;-80
2022/04/11 02:00:30;;;;;;;;;;;6.60;54.30;;;;;;6123834;23;19926;-81
2022/04/11 02:02:57;;;;;;;;;;;6.70;53.10;;;;;;6098766;23;19928;-80
2022/04/11 02:05:25;;;;;;;;;;;6.80;52.20;;;;;;6098831;23;19974;-78
2022/04/11 02:07:52;;;;;;;;;;;6.90;49.80;;;;;;6097875;23;19924;-80
2022/04/11 02:10:19;;;;;;;;;;;7.10;47.90;;;;;;6098320;23;20334;-78
2022/04/11 02:12:47;;;;;;;;;;;7.30;46.60;;;;;;6099116;23;19920;-81
2022/04/11 02:15:15;;;;;;;;;;;7.40;49.00;;;;;;6123405;23;19917;-81
2022/04/11 02:17:42;;;;;;;;;;;7.40;48.70;;;;;;6099260;23;19949;-78
2022/04/11 02:20:11;;;;;;;;;;;7.00;53.60;;;;;;6100541;23;19917;-78
2022/04/11 02:22:54;;;;;;;;;;;6.90;55.20;;;;;;6098908;23;19948;-80
2022/04/11 02:25:22;;;;;;;;;;;6.80;55.60;;;;;;6097797;23;20238;-78
2022/04/11 02:27:49;;;;;;;;;;;6.70;55.40;;;;;;6098588;23;20305;-78
2022/04/11 02:30:16;;;;;;;;;;;6.60;54.90;;;;;;6097919;23;19921;-78
2022/04/11 02:32:43;;;;;;;;;;;6.60;54.10;;;;;;6099054;23;19921;-78
2022/04/11 02:35:11;;;;;;;;;;;6.60;54.50;;;;;;6097914;23;20337;-80
2022/04/11 02:37:37;;;;;;;;;;;6.50;55.70;;;;;;6098919;23;19917;-78
2022/04/11 02:40:05;;;;;;;;;;;6.50;55.20;;;;;;6088740;23;19917;-77
2022/04/11 02:42:32;;;;;;;;;;;6.50;55.00;;;;;;6097634;23;19917;-77
2022/04/11 02:44:58;;;;;;;;;;;6.40;55.20;;;;;;6098875;23;19968;-78
2022/04/11 02:47:25;;;;;;;;;;;6.30;55.60;;;;;;6096070;23;19921;-81
2022/04/11 02:49:52;;;;;;;;;;;6.30;55.80;;;;;;6124028;23;19940;-82
2022/04/11 02:52:19;;;;;;;;;;;6.20;56.70;;;;;;6098025;23;19917;-81
2022/04/11 02:54:45;;;;;;;;;;;6.10;58.20;;;;;;6098349;23;19925;-78
2022/04/11 02:57:12;;;;;;;;;;;6.00;57.40;;;;;;6122749;23;19976;-81
2022/04/11 02:59:39;;;;;;;;;;;6.00;56.00;;;;;;6098529;23;19917;-78
2022/04/11 03:02:06;;;;;;;;;;;6.10;54.40;;;;;;6098471;23;19921;-78
2022/04/11 03:04:33;;;;;;;;;;;6.10;53.40;;;;;;6097649;23;20020;-82
2022/04/11 03:06:59;;;;;;;;;;;6.20;54.30;;;;;;6098474;23;19921;-77
2022/04/11 03:09:26;;;;;;;;;;;6.20;51.90;;;;;;6124595;23;20294;-81
2022/04/11 03:11:53;;;;;;;;;;;6.40;49.60;;;;;;6099983;23;20338;-77
2022/04/11 03:14:19;;;;;;;;;;;6.40;49.40;;;;;;6098985;23;20386;-77
2022/04/11 03:16:46;;;;;;;;;;;6.60;48.80;;;;;;6099973;23;19971;-78
2022/04/11 03:19:13;;;;;;;;;;;6.70;47.90;;;;;;6124948;23;19917;-77
2022/04/11 03:21:40;;;;;;;;;;;6.80;47.40;;;;;;6100017;23;19971;-77
2022/04/11 03:24:07;;;;;;;;;;;6.90;47.50;;;;;;6125506;23;19917;-78
2022/04/11 03:26:34;;;;;;;;;;;7.00;47.20;;;;;;6099373;23;19968;-80
2022/04/11 03:29:00;;;;;;;;;;;7.20;46.30;;;;;;6099924;23;19921;-78
2022/04/11 03:31:27;;;;;;;;;;;7.30;45.90;;;;;;6124915;23;19921;-78
2022/04/11 03:33:54;;;;;;;;;;;7.40;45.90;;;;;;6123972;23;19983;-82
2022/04/11 03:36:21;;;;;;;;;;;7.40;45.90;;;;;;6099419;23;19921;-80
2022/04/11 03:38:48;;;;;;;;;;;7.40;45.80;;;;;;6100315;23;20254;-78
2022/04/11 03:41:15;;;;;;;;;;;7.40;47.60;;;;;;6099868;23;19952;-78
2022/04/11 03:43:42;;;;;;;;;;;7.20;51.00;;;;;;6100208;23;20326;-78
2022/04/11 03:46:08;;;;;;;;;;;7.00;49.00;;;;;;6100261;23;19949;-78
2022/04/11 03:48:35;;;;;;;;;;;7.00;49.20;;;;;;6098888;23;20346;-78
2022/04/11 03:51:02;;;;;;;;;;;6.90;49.60;;;;;;6099178;23;19921;-78
2022/04/11 03:53:33;;;;;;;;;;;6.90;49.50;;;;;;6099892;23;20318;-78
2022/04/11 03:56:00;;;;;;;;;;;6.70;51.80;;;;;;6125424;23;20294;-78
2022/04/11 03:58:27;;;;;;;;;;;6.20;55.20;;;;;;6124668;23;19917;-78
2022/04/11 04:00:59;;;;;;;;;;;6.10;55.50;;;;;;6100138;23;19933;-78
2022/04/11 04:03:27;;;;;;;;;;;5.90;56.20;;;;;;6099236;23;19947;-81
2022/04/11 04:05:54;;;;;;;;;;;5.70;57.10;;;;;;6100341;23;19924;-80
2022/04/11 04:08:21;;;;;;;;;;;5.60;57.30;;;;;;6098745;23;19917;-81
2022/04/11 04:10:48;;;;;;;;;;;5.40;59.70;;;;;;6099873;23;19917;-81
2022/04/11 04:13:16;;;;;;;;;;;5.20;60.20;;;;;;6123622;23;19928;-81
2022/04/11 04:15:43;;;;;;;;;;;5.10;60.70;;;;;;6099553;23;19923;-78
2022/04/11 04:18:11;;;;;;;;;;;4.90;61.30;;;;;;6125117;23;20231;-81
2022/04/11 04:20:39;;;;;;;;;;;4.80;61.70;;;;;;6097627;23;19921;-78
2022/04/11 04:23:06;;;;;;;;;;;4.70;60.60;;;;;;6100260;23;19921;-80
2022/04/11 04:25:36;;;;;;;;;;;4.70;61.20;;;;;;6098441;23;19949;-78
2022/04/11 04:28:03;;;;;;;;;;;4.70;61.10;;;;;;6100084;23;19916;-78
2022/04/11 04:30:30;;;;;;;;;;;4.60;60.80;;;;;;6099331;23;19921;-81
2022/04/11 04:32:57;;;;;;;;;;;4.60;60.80;;;;;;6100011;23;20410;-79
2022/04/11 04:35:24;;;;;;;;;;;4.60;60.80;;;;;;6124116;23;19964;-78
2022/04/11 04:37:52;;;;;;;;;;;4.50;61.70;;;;;;6125062;23;19920;-81
2022/04/11 04:40:19;;;;;;;;;;;4.50;60.90;;;;;;6098657;23;19964;-81
2022/04/11 04:42:45;;;;;;;;;;;4.60;61.80;;;;;;6099483;23;20294;-78
2022/04/11 04:45:12;;;;;;;;;;;4.60;63.20;;;;;;6098461;23;19952;-81
2022/04/11 04:47:39;;;;;;;;;;;4.50;63.10;;;;;;6098694;23;19917;-81
2022/04/11 04:50:06;;;;;;;;;;;4.50;62.80;;;;;;6100090;23;20234;-78
2022/04/11 04:52:33;;;;;;;;;;;4.50;62.70;;;;;;6098638;23;19967;-80
2022/04/11 04:55:00;;;;;;;;;;;4.50;64.50;;;;;;6099532;23;19971;-80
2022/04/11 04:57:27;;;;;;;;;;;4.40;64.50;;;;;;6097991;23;20357;-78
2022/04/11 04:59:53;;;;;;;;;;;4.30;63.60;;;;;;6099923;23;19924;-80
2022/04/11 05:02:20;;;;;;;;;;;4.30;63.70;;;;;;6098284;23;19921;-80
2022/04/11 05:04:47;;;;;;;;;;;4.20;65.20;;;;;;6098796;23;19917;-78
2022/04/11 05:07:14;;;;;;;;;;;4.20;64.00;;;;;;6124303;23;19917;-77
2022/04/11 05:09:41;;;;;;;;;;;4.20;64.00;;;;;;6097726;23;19970;-79
2022/04/11 05:12:07;;;;;;;;;;;4.20;64.20;;;;;;6099479;23;20326;-80
2022/04/11 05:14:34;;;;;;;;;;;4.10;64.30;;;;;;6097784;23;19960;-80
2022/04/11 05:17:01;;;;;;;;;;;4.00;64.50;;;;;;6099462;23;19968;-77
2022/04/11 05:19:28;;;;;;;;;;;3.80;65.50;;;;;;6097938;23;20276;-80
2022/04/11 05:21:54;;;;;;;;;;;3.80;65.50;;;;;;6098706;23;19917;-78
2022/04/11 05:24:24;;;;;;;;;;;3.80;66.20;;;;;;6097805;23;19917;-80
2022/04/11 05:26:51;;;;;;;;;;;3.70;67.40;;;;;;6099322;23;19920;-81
2022/04/11 05:29:18;;;;;;;;;;;3.60;67.50;;;;;;6097444;23;20254;-80
2022/04/11 05:31:45;;;;;;;;;;;3.60;67.00;;;;;;6098461;23;19917;-78
2022/04/11 05:34:12;;;;;;;;;;;3.70;67.50;;;;;;6123874;23;20410;-80
2022/04/11 05:36:38;;;;;;;;;;;3.70;66.70;;;;;;6097610;23;19929;-79
2022/04/11 05:39:05;;;;;;;;;;;3.80;66.90;;;;;;6124076;23;20239;-81
2022/04/11 05:41:32;;;;;;;;;;;3.90;67.70;;;;;;6074188;23;19963;-78
2022/04/11 05:43:58;;;;;;;;;;;4.00;65.90;;;;;;6098416;23;20235;-79
2022/04/11 05:46:25;;;;;;;;;;;4.10;65.00;;;;;;6124204;23;19921;-81
2022/04/11 05:48:52;;;;;;;;;;;4.10;65.10;;;;;;6099385;23;19917;-81
2022/04/11 05:51:19;;;;;;;;;;;4.30;65.70;;;;;;6098135;23;19917;-80
2022/04/11 05:53:45;;;;;;;;;;;4.40;66.10;;;;;;6099209;23;19928;-79
2022/04/11 05:56:12;;;;;;;;;;;4.50;64.60;;;;;;6123706;23;20397;-78
2022/04/11 05:58:39;;;;;;;;;;;4.50;64.20;;;;;;6123345;23;19928;-81
2022/04/11 06:01:06;;;;;;;;;;;4.60;64.10;;;;;;6099071;23;19916;-78
2022/04/11 06:03:35;;;;;;;;;;;4.70;64.50;;;;;;6123723;23;19921;-79
2022/04/11 06:06:02;;;;;;;;;;;4.80;65.00;;;;;;6098129;23;20002;-81
2022/04/11 06:08:29;;;;;;;;;;;4.80;64.80;;;;;;6098329;23;20390;-80
2022/04/11 06:10:56;;;;;;;;;;;4.90;64.70;;;;;;6098972;23;19916;-80
2022/04/11 06:13:23;;;;;;;;;;;5.00;64.70;;;;;;6098558;23;19921;-80
2022/04/11 06:15:50;;;;;;;;;;;5.00;64.40;;;;;;6098770;23;19955;-82
2022/04/11 06:18:17;;;;;;;;;;;5.10;63.60;;;;;;6098979;23;19993;-81
2022/04/11 06:20:45;;;;;;;;;;;5.20;62.50;;;;;;6097507;23;20253;-79
2022/04/11 06:23:12;;;;;;;;;;;5.30;62.50;;;;;;6099608;23;19924;-79
2022/04/11 06:25:39;;;;;;;;;;;5.40;63.30;;;;;;6124052;23;20302;-81
2022/04/11 06:28:05;;;;;;;;;;;5.60;62.80;;;;;;6098649;23;19921;-79
2022/04/11 06:30:32;;;;;;;;;;;5.70;62.90;;;;;;6097927;23;19917;-79
2022/04/11 06:32:59;;;;;;;;;;;6.00;62.30;;;;;;6097952;23;19917;-79
2022/04/11 06:35:25;;;;;;;;;;;6.30;62.00;;;;;;6085326;23;20038;-79
2022/04/11 06:37:52;;;;;;;;;;;6.50;60.50;;;;;;6098934;23;19923;-79
2022/04/11 06:40:19;;;;;;;;;;;6.60;61.00;;;;;;6098048;23;19917;-79
2022/04/11 06:42:46;;;;;;;;;;;6.70;58.10;;;;;;6122763;23;19921;-82
2022/04/11 06:45:14;;;;;;;;;;;6.80;54.90;;;;;;6100097;23;19924;-79
2022/04/11 06:47:42;;;;;;;;;;;7.00;52.70;;;;;;6098504;23;19948;-78
2022/04/11 06:50:09;;;;;;;;;;;7.10;51.20;;;;;;6100977;23;20014;-81
2022/04/11 06:52:35;;;;;;;;;;;7.30;50.30;;;;;;6100106;23;19921;-81
2022/04/11 06:55:02;;;;;;;;;;;7.70;49.40;;;;;;6099988;23;19949;-80
2022/04/11 06:57:29;;;;;;;;;;;8.10;48.30;;;;;;6100424;23;19983;-79
2022/04/11 06:59:56;;;;;;;;;;;8.40;47.10;;;;;;6100879;23;19917;-81
2022/04/11 07:02:23;;;;;;;;;;;8.90;48.20;;;;;;6100807;23;19921;-79
2022/04/11 07:04:50;;;;;;;;;;;9.10;51.40;;;;;;6099610;23;19916;-79
2022/04/11 07:07:16;;;;;;;;;;;9.30;49.00;;;;;;6100291;23;19967;-79
2022/04/11 07:09:43;;;;;;;;;;;9.40;48.70;;;;;;6124846;23;19916;-79
2022/04/11 07:12:10;;;;;;;;;;;9.50;48.80;;;;;;6099052;23;20338;-82
2022/04/11 07:14:37;;;;;;;;;;;9.60;48.90;;;;;;6099337;23;20129;-82
2022/04/11 07:17:05;;;;;;;;;;;9.80;48.90;;;;;;6125334;23;20422;-79
2022/04/11 07:19:32;;;;;;;;;;;9.90;49.30;;;;;;6100124;23;19917;-81
2022/04/11 07:21:59;;;;;;;;;;;10.00;47.60;;;;;;6100270;23;19920;-81
2022/04/11 07:24:26;;;;;;;;;;;10.00;47.20;;;;;;6099438;23;19971;-79
2022/04/11 07:26:52;;;;;;;;;;;10.10;47.20;;;;;;6099770;23;19917;-82
2022/04/11 07:29:19;;;;;;;;;;;10.10;47.00;;;;;;6099035;23;19917;-78
2022/04/11 07:31:46;;;;;;;;;;;10.20;47.00;;;;;;6099976;23;19921;-80
2022/04/11 07:34:13;;;;;;;;;;;10.60;47.30;;;;;;6125337;23;19968;-82
2022/04/11 07:36:40;;;;;;;;;;;10.80;46.00;;;;;;6100084;23;19967;-79
2022/04/11 07:39:06;;;;;;;;;;;10.90;45.90;;;;;;6101028;23;20249;-78
2022/04/11 07:41:33;;;;;;;;;;;10.90;45.90;;;;;;6099301;23;20342;-82
2022/04/11 07:44:00;;;;;;;;;;;11.40;45.80;;;;;;6099508;23;20326;-80
2022/04/11 07:46:27;;;;;;;;;;;11.60;44.70;;;;;;6101315;23;19917;-80
2022/04/11 07:48:53;;;;;;;;;;;11.70;45.00;;;;;;6101490;23;19917;-79
2022/04/11 07:51:20;;;;;;;;;;;11.60;44.80;;;;;;6125918;23;19921;-80
2022/04/11 07:53:47;;;;;;;;;;;11.80;45.60;;;;;;6098908;23;19921;-79
2022/04/11 07:56:14;;;;;;;;;;;12.00;45.50;;;;;;6102356;23;19971;-78
2022/04/11 07:58:41;;;;;;;;;;;12.10;45.30;;;;;;6098317;23;19968;-80
2022/04/11 08:01:07;;;;;;;;;;;12.30;44.80;;;;;;6076471;23;20357;-78
2022/04/11 08:03:34;;;;;;;;;;;12.40;45.20;;;;;;6099132;23;19944;-79
2022/04/11 08:06:01;;;;;;;;;;;12.60;45.90;;;;;;6102229;23;19968;-78
2022/04/11 08:08:28;;;;;;;;;;;12.50;45.10;;;;;;6101469;23;19940;-82
2022/04/11 08:10:56;;;;;;;;;;;12.50;46.10;;;;;;6099825;23;19924;-79
2022/04/11 08:13:22;;;;;;;;;;;12.50;45.50;;;;;;6103633;23;19968;-80
2022/04/11 08:15:49;;;;;;;;;;;12.50;46.70;;;;;;6126266;23;19917;-81
2022/04/11 08:18:16;;;;;;;;;;;12.90;47.80;;;;;;6101472;23;20338;-82
2022/04/11 08:20:43;;;;;;;;;;;13.00;47.40;;;;;;6101158;23;19949;-80
2022/04/11 08:23:10;;;;;;;;;;;13.00;49.60;;;;;;6103471;23;19941;-78
2022/04/11 08:25:36;;;;;;;;;;;13.10;48.10;;;;;;6124987;23;19921;-82
2022/04/11 08:28:03;;;;;;;;;;;13.20;47.50;;;;;;6125485;23;19968;-78
2022/04/11 08:30:30;;;;;;;;;;;13.30;48.00;;;;;;6101263;23;19921;-80
2022/04/11 08:32:57;;;;;;;;;;;13.50;48.90;;;;;;6099917;23;20306;-80
2022/04/11 08:35:24;;;;;;;;;;;13.60;48.00;;;;;;6102765;23;19921;-80
2022/04/11 08:37:50;;;;;;;;;;;13.60;47.50;;;;;;6100198;23;19944;-82
2022/04/11 08:40:21;;;;;;;;;;;13.90;48.20;;;;;;6103347;23;19917;-80
2022/04/11 08:42:48;;;;;;;;;;;13.90;47.70;;;;;;6100966;23;19917;-80
2022/04/11 08:45:17;;;;;;;;;;;13.90;47.50;;;;;;6127987;23;19920;-80
2022/04/11 08:47:44;;;;;;;;;;;14.00;48.10;;;;;;6103944;23;19917;-80
2022/04/11 08:50:12;;;;;;;;;;;14.00;47.50;;;;;;6125678;23;19917;-79
2022/04/11 08:52:39;;;;;;;;;;;14.00;48.10;;;;;;6100318;23;19952;-81
2022/04/11 08:55:07;;;;;;;;;;;14.20;48.20;;;;;;6101439;23;19921;-82
2022/04/11 08:57:37;;;;;;;;;;;14.30;48.70;;;;;;6100073;23;19916;-80
2022/04/11 09:00:06;;;;;;;;;;;14.20;46.80;;;;;;6102578;23;19920;-80
2022/04/11 09:02:33;;;;;;;;;;;14.40;47.50;;;;;;6104142;23;20334;-79
2022/04/11 09:05:01;;;;;;;;;;;14.50;47.80;;;;;;6104653;23;19927;-81
2022/04/11 09:07:43;;;;;;;;;;;14.70;45.80;;;;;;6104423;23;19917;-80
2022/04/11 09:10:10;;;;;;;;;;;14.70;45.30;;;;;;6100466;23;20491;-78
2022/04/11 09:12:44;;;;;;;;;;;14.70;47.00;;;;;;6103763;23;19921;-82
2022/04/11 09:15:11;;;;;;;;;;;14.90;45.30;;;;;;6101555;23;20004;-79
2022/04/11 09:17:41;;;;;;;;;;;14.70;44.40;;;;;;6099868;23;19916;-81
2022/04/11 09:20:12;;;;;;;;;;;14.70;43.90;;;;;;6100628;23;19983;-78
2022/04/11 09:22:41;;;;;;;;;;;14.80;44.80;;;;;;6100874;23;20239;-78
2022/04/11 09:25:11;;;;;;;;;;;14.70;44.20;;;;;;6126529;23;19925;-78
2022/04/11 09:27:38;;;;;;;;;;;14.50;44.20;;;;;;6100903;23;20294;-80
2022/04/11 09:30:23;;;;;;;;;;;14.60;44.70;;;;;;6101394;23;19984;-79
2022/04/11 09:32:56;;;;;;;;;;;14.70;46.20;;;;;;6125785;23;20266;-82
2022/04/11 09:35:24;;;;;;;;;;;15.10;46.20;;;;;;6102740;23;19917;-81
2022/04/11 09:38:06;;;;;;;;;;;15.10;44.80;;;;;;6101616;23;19928;-79
2022/04/11 09:40:44;;;;;;;;;;;15.20;44.80;;;;;;6105810;23;19917;-81
2022/04/11 09:43:11;;;;;;;;;;;15.00;43.30;;;;;;6131192;23;19925;-82
2022/04/11 09:45:42;;;;;;;;;;;14.60;48.60;;;;;;6101158;23;19916;-82
2022/04/11 09:48:10;;;;;;;;;;;14.80;46.20;;;;;;6130220;23;19988;-80
2022/04/11 09:50:37;;;;;;;;;;;15.20;44.40;;;;;;6102465;23;20345;-81
2022/04/11 09:53:07;;;;;;;;;;;15.10;43.00;;;;;;6103166;23;19984;-80
2022/04/11 09:55:37;;;;;;;;;;;15.30;41.60;;;;;;6106008;23;19923;-82
2022/04/11 09:58:05;;;;;;;;;;;15.40;42.10;;;;;;6106435;23;19917;-82
2022/04/11 10:00:33;;;;;;;;;;;15.30;42.30;;;;;;6108838;23;19916;-82
2022/04/11 10:03:00;;;;;;;;;;;15.10;41.70;;;;;;6103588;23;19971;-81
2022/04/11 10:05:27;;;;;;;;;;;15.40;42.10;;;;;;6103549;23;19917;-79
2022/04/11 10:07:55;;;;;;;;;;;15.50;41.50;;;;;;6105068;23;19924;-80
2022/04/11 10:10:22;;;;;;;;;;;15.70;40.00;;;;;;6108154;23;19920;-81
2022/04/11 10:12:51;;;;;;;;;;;15.70;40.20;;;;;;6105149;23;19917;-79
2022/04/11 10:15:18;;;;;;;;;;;16.00;41.30;;;;;;6107237;23;19932;-79
2022/04/11 10:17:46;;;;;;;;;;;16.10;39.40;;;;;;6107087;23;19980;-82
2022/04/11 10:20:12;;;;;;;;;;;15.70;40.30;;;;;;6111432;23;19917;-79
2022/04/11 10:22:54;;;;;;;;;;;15.40;40.50;;;;;;6114834;23;19948;-81
2022/04/11 10:25:21;;;;;;;;;;;15.60;41.00;;;;;;6111459;23;19921;-79
2022/04/11 10:28:08;;;;;;;;;;;15.90;41.70;;;;;;6109285;23;19921;-79
2022/04/11 10:30:41;;;;;;;;;;;15.80;40.80;;;;;;6102403;23;19921;-80
2022/04/11 10:33:08;;;;;;;;;;;16.20;39.90;;;;;;6106555;23;19921;-80
2022/04/11 10:35:44;;;;;;;;;;;16.30;38.60;;;;;;6112489;23;19921;-79
2022/04/11 10:38:11;;;;;;;;;;;16.50;40.00;;;;;;6133587;23;19920;-79
2022/04/11 10:40:46;;;;;;;;;;;16.60;38.30;;;;;;6109255;23;19920;-82
2022/04/11 10:43:32;;;;;;;;;;;16.60;37.70;;;;;;6115244;23;19917;-79
2022/04/11 10:45:59;;;;;;;;;;;16.30;37.50;;;;;;6111575;23;19971;-82
2022/04/11 10:48:45;;;;;;;;;;;16.10;38.70;;;;;;6106940;23;19921;-81
2022/04/11 10:51:18;;;;;;;;;;;16.30;39.10;;;;;;6128073;23;19917;-82
2022/04/11 10:54:03;;;;;;;;;;;16.40;37.90;;;;;;6108600;23;20432;-79
2022/04/11 10:56:49;;;;;;;;;;;16.40;37.90;;;;;;6104098;23;20005;-81
2022/04/11 10:59:24;;;;;;;;;;;16.30;37.80;;;;;;6103185;23;20338;-82
2022/04/11 11:01:55;;;;;;;;;;;16.50;38.70;;;;;;6106587;23;19972;-78
2022/04/11 11:04:25;;;;;;;;;;;16.50;37.00;;;;;;6106647;23;19917;-80
2022/04/11 11:07:11;;;;;;;;;;;16.50;36.90;;;;;;6099330;23;19945;-82
2022/04/11 11:09:40;;;;;;;;;;;16.10;37.50;;;;;;6102430;23;20334;-79
2022/04/11 11:12:20;;;;;;;;;;;16.20;39.60;;;;;;6098156;23;19927;-81
2022/04/11 11:14:46;;;;;;;;;;;16.40;39.00;;;;;;6098038;23;19940;-81
2022/04/11 11:17:13;;;;;;;;;;;16.50;36.70;;;;;;6099274;23;19917;-82
2022/04/11 11:20:03;;;;;;;;;;;16.80;37.30;;;;;;6098584;23;19984;-79
2022/04/11 11:22:34;;;;;;;;;;;16.60;36.30;;;;;;6095156;23;19917;-79
2022/04/11 11:25:19;;;;;;;;;;;17.10;36.90;;;;;;6106669;23;19921;-82
2022/04/11 11:27:46;;;;;;;;;;;17.10;35.10;;;;;;6100992;23;19928;-82
2022/04/11 11:30:13;;;;;;;;;;;16.50;35.00;;;;;;6098378;23;19925;-78
2022/04/11 11:32:41;;;;;;;;;;;16.50;35.80;;;;;;6098330;23;19976;-81
2022/04/11 11:35:09;;;;;;;;;;;16.80;34.60;;;;;;6100055;23;19924;-80
2022/04/11 11:37:36;;;;;;;;;;;17.10;33.90;;;;;;6101240;23;20042;-81
2022/04/11 11:40:03;;;;;;;;;;;17.40;33.40;;;;;;6095681;23;19967;-82
2022/04/11 11:42:34;;;;;;;;;;;16.70;31.20;;;;;;6102491;23;19925;-79
2022/04/11 11:45:00;;;;;;;;;;;16.60;32.30;;;;;;6104529;23;19928;-82
2022/04/11 11:47:28;;;;;;;;;;;16.90;35.70;;;;;;6103619;23;19965;-79
2022/04/11 11:50:21;;;;;;;;;;;17.10;30.70;;;;;;6095478;23;19995;-82
2022/04/11 11:52:57;;;;;;;;;;;17.30;31.70;;;;;;6090867;23;19976;-80
2022/04/11 11:55:24;;;;;;;;;;;17.50;30.80;;;;;;6074410;23;19965;-82
2022/04/11 11:58:03;;;;;;;;;;;17.50;31.70;;;;;;6098978;23;19925;-82
2022/04/11 12:00:34;;;;;;;;;;;16.80;31.30;;;;;;6102792;23;19918;-81
2022/04/11 12:05:56;;;;;;;;;;;17.20;33.60;;;;;;6099577;23;19917;-81
2022/04/11 12:08:22;;;;;;;;;;;17.20;30.70;;;;;;6095476;23;20303;-81
2022/04/11 12:10:54;;;;;;;;;;;17.20;30.40;;;;;;6096729;23;19969;-82
2022/04/11 12:13:25;;;;;;;;;;;17.10;30.80;;;;;;6096852;23;20698;-79
2022/04/11 12:15:52;;;;;;;;;;;17.50;31.10;;;;;;6097281;23;19999;-81
2022/04/11 12:18:19;;;;;;;;;;;17.80;29.90;;;;;;6098077;23;19917;-79
2022/04/11 12:20:47;;;;;;;;;;;17.90;30.00;;;;;;6097750;23;19921;-79
2022/04/11 12:23:15;;;;;;;;;;;18.30;30.00;;;;;;6098713;23;20330;-82
2022/04/11 12:25:52;;;;;;;;;;;18.20;30.90;;;;;;6097305;23;19992;-79
2022/04/11 12:28:22;;;;;;;;;;;17.80;31.20;;;;;;6096431;23;19918;-83
2022/04/11 12:31:05;;;;;;;;;;;17.70;31.40;;;;;;6104154;23;19921;-82
2022/04/11 12:33:40;;;;;;;;;;;17.30;30.40;;;;;;6095045;23;19917;-83
2022/04/11 12:36:07;;;;;;;;;;;17.40;31.20;;;;;;6096749;23;19941;-82
2022/04/11 12:38:51;;;;;;;;;;;17.30;28.80;;;;;;6098474;23;19917;-81
2022/04/11 12:41:31;;;;;;;;;;;17.40;32.50;;;;;;6101174;23;19924;-83
2022/04/11 12:44:07;;;;;;;;;;;17.90;29.90;;;;;;6094600;23;19971;-79
2022/04/11 12:46:34;;;;;;;;;;;18.10;30.10;;;;;;6095222;23;19964;-82
2022/04/11 12:49:02;;;;;;;;;;;18.40;29.90;;;;;;6102961;23;19917;-82
2022/04/11 12:51:29;;;;;;;;;;;18.60;28.40;;;;;;6100962;23;19941;-80
2022/04/11 12:54:00;;;;;;;;;;;18.80;29.90;;;;;;6099988;23;19917;-79
2022/04/11 12:56:37;;;;;;;;;;;18.80;28.90;;;;;;6072409;23;20008;-80
2022/04/11 12:59:04;;;;;;;;;;;18.80;28.80;;;;;;6101367;23;19917;-80
2022/04/11 13:01:50;;;;;;;;;;;18.40;28.20;;;;;;6095860;23;19917;-79
2022/04/11 13:04:17;;;;;;;;;;;18.60;28.30;;;;;;6111233;23;19980;-79
2022/04/11 13:06:44;;;;;;;;;;;18.80;28.50;;;;;;6094488;23;19917;-82
2022/04/11 13:09:11;;;;;;;;;;;18.90;28.50;;;;;;6102750;23;19921;-80
2022/04/11 13:11:41;;;;;;;;;;;18.80;28.80;;;;;;6098777;23;19921;-80
2022/04/11 13:14:28;;;;;;;;;;;19.10;28.20;;;;;;6100618;23;19917;-80
2022/04/11 13:19:43;;;;;;;;;;;19.30;27.40;;;;;;6095621;23;20341;-81
2022/04/11 13:22:10;;;;;;;;;;;19.40;26.50;;;;;;6097673;23;20070;-80
2022/04/11 13:24:36;;;;;;;;;;;19.40;26.70;;;;;;6098044;23;19928;-82
2022/04/11 13:27:03;;;;;;;;;;;19.20;26.40;;;;;;6098821;23;19917;-82
2022/04/11 13:29:31;;;;;;;;;;;19.10;27.70;;;;;;6093399;23;19968;-80
2022/04/11 13:32:01;;;;;;;;;;;19.40;28.80;;;;;;6099365;23;19917;-82
2022/04/11 13:34:28;;;;;;;;;;;19.60;27.40;;;;;;6104402;23;19921;-82
2022/04/11 13:36:55;;;;;;;;;;;19.90;26.50;;;;;;6094816;23;19921;-82
2022/04/11 13:39:43;;;;;;;;;;;19.20;26.60;;;;;;6094271;23;19921;-80
2022/04/11 13:42:10;;;;;;;;;;;18.70;25.70;;;;;;6100380;23;19917;-82
2022/04/11 13:44:37;;;;;;;;;;;19.00;25.70;;;;;;6096212;23;19924;-82
2022/04/11 13:47:04;;;;;;;;;;;19.10;26.10;;;;;;6095319;23;19948;-82
2022/04/11 13:49:32;;;;;;;;;;;19.20;25.90;;;;;;6095396;23;19924;-80
2022/04/11 13:51:59;;;;;;;;;;;19.20;26.20;;;;;;6101808;23;19917;-79
2022/04/11 13:54:25;;;;;;;;;;;19.30;23.30;;;;;;6102403;23;19921;-80
2022/04/11 13:56:52;;;;;;;;;;;19.50;24.70;;;;;;6094530;23;19929;-83
2022/04/11 13:59:20;;;;;;;;;;;19.70;25.40;;;;;;6100999;23;19932;-79
2022/04/11 14:01:48;;;;;;;;;;;19.40;25.60;;;;;;6095307;23;19917;-82
2022/04/11 14:04:15;;;;;;;;;;;18.90;25.30;;;;;;6097681;23;19928;-82
2022/04/11 14:06:43;;;;;;;;;;;18.80;23.90;;;;;;6096894;23;19944;-80
2022/04/11 14:09:11;;;;;;;;;;;18.80;25.30;;;;;;6099026;23;19940;-80
2022/04/11 14:11:58;;;;;;;;;;;18.80;24.00;;;;;;6093992;23;19960;-82
2022/04/11 14:14:25;;;;;;;;;;;19.30;24.20;;;;;;6093403;23;20319;-82
2022/04/11 14:16:52;;;;;;;;;;;18.80;24.10;;;;;;6095558;23;20316;-83
2022/04/11 14:19:18;;;;;;;;;;;18.80;24.60;;;;;;6094304;23;19917;-83
2022/04/11 14:21:45;;;;;;;;;;;19.40;24.60;;;;;;6094720;23;19921;-80
2022/04/11 14:24:12;;;;;;;;;;;19.70;24.50;;;;;;6097387;23;19917;-82
2022/04/11 14:26:39;;;;;;;;;;;19.90;23.80;;;;;;6095908;23;19924;-82
2022/04/11 14:29:06;;;;;;;;;;;20.30;24.60;;;;;;6100169;23;20335;-83
2022/04/11 14:31:33;;;;;;;;;;;20.10;24.10;;;;;;6096664;23;20246;-82
2022/04/11 14:33:59;;;;;;;;;;;20.10;23.90;;;;;;6101423;23;19936;-80
2022/04/11 14:36:26;;;;;;;;;;;20.10;25.40;;;;;;6095016;23;20250;-83